This is the latest recevied weather packets stored in our database for station/object JE9BHE-13. If no packets are shown the sender has not sent any weather packets the latest 10 day(s).
| Time | Temp. | Humidity | Pressure | Rain* | Wind** | Luminosity | Snow |
|---|---|---|---|---|---|---|---|
| 1777830307 | 16.11° C | 97% | 1001.3 hPa | 2.03 mm | - | - | - |
| 1777829947 | 16.11° C | 97% | 1001.2 hPa | 2.03 mm | - | - | - |
| 1777828867 | 16.67° C | 96% | 1001.1 hPa | 1.02 mm | - | - | - |
| 1777825088 | 19.44° C | 79% | 999.1 hPa | 0.25 mm | - | - | - |
| 1777824367 | 19.44° C | 80% | 998.6 hPa | 0.25 mm | - | - | - |
| 1777823647 | 18.89° C | 83% | 999.1 hPa | 0.51 mm | - | - | - |
| 1777820946 | 18.89° C | 84% | 1000.2 hPa | 0.25 mm | - | - | - |
| 1777820768 | 18.89° C | 83% | 1000.2 hPa | 0.25 mm | - | - | - |
| 1777820047 | 18.33° C | 84% | 1000 hPa | 0.25 mm | - | - | - |
| 1777819508 | 18.33° C | 85% | 1000.4 hPa | 0.25 mm | - | - | - |
| 1777818247 | 18.33° C | 85% | 1001 hPa | 0.51 mm | - | - | - |
| 1777817347 | 17.78° C | 85% | 1001.3 hPa | 1.02 mm | - | - | - |
| 1777816267 | 18.33° C | 84% | 1001.2 hPa | 1.02 mm | - | - | - |
| 1777815907 | 18.33° C | 86% | 1001.4 hPa | 1.27 mm | - | - | - |
| 1777813028 | 17.78° C | 85% | 1002.1 hPa | 0.51 mm | - | - | - |
| 1777812667 | 17.78° C | 84% | 1002.2 hPa | 0.51 mm | - | - | - |
| 1777811947 | 17.78° C | 82% | 1002.3 hPa | 0.25 mm | - | - | - |
| 1777810147 | 17.22° C | 83% | 1002.4 hPa | 0.51 mm | - | - | - |
| 1777808887 | 17.22° C | 83% | 1002.6 hPa | 1.02 mm | - | - | - |
| 1777808167 | 16.67° C | 85% | 1002.8 hPa | 1.52 mm | - | - | - |
| 1777807267 | 16.67° C | 83% | 1002.8 hPa | 1.27 mm | - | - | - |
| 1777806367 | 16.11° C | 82% | 1003.1 hPa | 1.27 mm | - | - | - |
| 1777805828 | 16.11° C | 83% | 1002.5 hPa | 1.27 mm | - | - | - |
| 1777805467 | 16.11° C | 84% | 1003.3 hPa | 1.02 mm | - | - | - |
| 1777804747 | 16.67° C | 79% | 1003.7 hPa | 0.25 mm | - | - | - |
* Rain latest hour (hover to see other rain measurements)
** Current wind speed in m/s (hover to see current wind gust speed)